North Ferrisburgh, VT (05473)

5:40 AM EDT on September 01, 2014 (GMT -0400)
Round Barn Road | Change Station
CLOSE
Current Station
Personal Weather Station
Location: Ferrisburgh, VT
Elevation: 199 ft
Nearby Weather Stations

Elev 199 ft 44.21 °N, 73.25 °W | Updated 6 seconds ago

Partly Cloudy
Partly Cloudy
68.3 °F
Feels Like 68.3 °F
N
0.0
Wind Variable Wind from SE
Gusts 1.0 mph

Today
High -- | Low -- °F
--% Chance of Precip.
Yesterday
High -- | Low -- °F
Precip. -- in
6:15 AM 7:29 PM
Waxing Crescent, 39% visible
Pressure 29.94 in
Visibility 9.0 miles
Clouds Few 7000 ft
Dew Point 68 °F
Humidity 98%
Rainfall 0.00 in
Snow Depth Not available.
UV 0 out of 12
Pollen 5.60 out of 12
Ozone Good
PM2.5 Good
Flu Activity Not available.
METAR KBTV 010854Z 18007KT 9SM FEW070 21/19 A2994 RMK AO2 SLP136 60001 T02110194 51007

More Conditions Fewer Conditions

Pressure 29.94 in
Visibility 9.0 miles
Clouds Few 7000 ft
Dew Point 68 °F
Humidity 98%
Rainfall 0.00 in
Snow Depth Not available.
UV 0 out of 12
Pollen 5.60 out of 12
Ozone Good
PM2.5 Good
Flu Activity Not available.
METAR KBTV 010854Z 18007KT 9SM FEW070 21/19 A2994 RMK AO2 SLP136 60001 T02110194 51007

More Conditions Fewer Conditions

10-Day Weather Forecast

Almanac

Astronomy

Sep. 01, 2014 Rise Set
Actual Time 6:15 AM EDT 7:29 PM EDT
Civil Twilight 5:45 AM EDT 7:58 PM EDT
Nautical Twilight 5:09 AM EDT 8:34 PM EDT
Astronomical Twilight 4:31 AM EDT 9:12 PM EDT
Moon 1:13 PM EDT 11:12 PM EDT
Length of Visible Light 14h 13m
Length of Day
13h 13m
Tomorrow will be 2m 56s shorter.
Waxing Crescent, 39% of the Moon is Illuminated
Today
Waxing Crescent
Sep 2
First Quarter
Sep 8
Full
Sep 15
Last Quarter
Sep 24
New

Today's Extremes

State Highs State Lows

Community

WunderPhotos

Upload Photos

1,749,178 photos uploaded!

Nearby

Air Quality

  Air Quality AQ Index Pollutant
Yesterday Good
PM2.5
Yesterday Good
OZONE
Current Good
PM2.5
Current Good
OZONE
Monday Moderate
PM2.5
Tuesday Moderate
PM2.5

Snow Depth

Station Depth Elevation
No new snow has been reported.

Earthquake Activity

City Distance Mag. Time & Date
No recent earthquake activity has been reported nearby.
Minimum magnitude displayed is 2.5.

Coastal Water Temperatures

Place Temperature
No Stations Reporting

Nearby Weather Stations